Check out our new PWSWeather beta!
PWSweather.com
Personal Weather Stations
Station Observations
SANDHURSTWX
SandhurstGB

SandhurstGB

Lat: 51.3522, Lon: -0.7739

Elevation: 272.3

Station Type: Davis VP2

www.sandhurstweather.org.uk

High Low Average
Temperature 52.0°F11.1°C 33.6°F0.9°C 44.2°F6.8°C
Dew Point 48.3°F9.1°C 32.1°F0.1°C 41.5°F5.3°C
Winds 10.4 mph 16.7 kmh Calm Calm 5.0 mph SSW8.0 kmh SSW
Wind Gusts 19.6 mph31.5 kmh -- 8.0 mph12.9 kmh
Humidity 97% 80% 91%
Pressure 30.08 in1018.6 mb 29.91 in1012.9 mb -
Precipitation 0.01 in0.3 mm - -
Hour Temp Dew Point Humidity Winds Wind Gusts Pressure Precip Precip Rate Daily Precip Total
12:00 AM 43.5°F6.4°C 39.0°F3.9°C 84% 1.2 mph W1.9 kmh W 4.6 mph7.4 kmh 29.91 in1012.9 mb - 0.00 in0.0 mm 0.00 in0.0 mm
01:00 AM 41.3°F5.2°C 37.4°F3.0°C 86% Calm Calm 1.2 mph1.9 kmh 29.93 in1013.5 mb - 0.00 in0.0 mm 0.00 in0.0 mm
02:00 AM 38.4°F3.6°C 35.7°F2.1°C 90% 1.2 mph WSW1.9 kmh WSW 2.3 mph3.7 kmh 29.94 in1013.9 mb - 0.00 in0.0 mm 0.00 in0.0 mm
03:00 AM 36.2°F2.3°C 34.1°F1.2°C 92% 1.2 mph WSW1.9 kmh WSW 2.3 mph3.7 kmh 29.98 in1015.2 mb - 0.00 in0.0 mm 0.00 in0.0 mm
04:00 AM 35.7°F2.1°C 33.9°F1.1°C 93% Calm Calm -- 30.00 in1015.9 mb - 0.00 in0.0 mm 0.00 in0.0 mm
05:00 AM 34.3°F1.3°C 32.8°F0.4°C 94% Calm Calm -- 30.02 in1016.6 mb - 0.00 in0.0 mm 0.00 in0.0 mm
06:00 AM 33.9°F1.1°C 32.4°F0.2°C 94% Calm Calm -- 30.03 in1016.9 mb - 0.00 in0.0 mm 0.00 in0.0 mm
07:00 AM 33.6°F0.9°C 32.1°F0.1°C 94% 2.3 mph SW3.7 kmh SW 2.3 mph3.7 kmh 30.04 in1017.3 mb - 0.00 in0.0 mm 0.00 in0.0 mm
08:00 AM 35.0°F1.7°C 34.0°F1.1°C 96% 4.6 mph S7.4 kmh S 5.8 mph9.3 kmh 30.06 in1017.9 mb - 0.00 in0.0 mm 0.00 in0.0 mm
09:00 AM 38.0°F3.3°C 37.2°F2.9°C 97% 6.9 mph S11.1 kmh S 10.4 mph16.7 kmh 30.07 in1018.3 mb - 0.00 in0.0 mm 0.00 in0.0 mm
10:00 AM 42.3°F5.7°C 40.7°F4.8°C 94% 8.1 mph S13.0 kmh S 9.2 mph14.8 kmh 30.08 in1018.6 mb - 0.00 in0.0 mm 0.00 in0.0 mm
11:00 AM 47.1°F8.4°C 44.3°F6.8°C 90% 6.9 mph S11.1 kmh S 12.7 mph20.4 kmh 30.06 in1017.9 mb - 0.00 in0.0 mm 0.00 in0.0 mm
12:00 PM 50.3°F10.2°C 45.7°F7.6°C 84% 8.1 mph SSW13.0 kmh SSW 11.5 mph18.5 kmh 30.04 in1017.3 mb - 0.00 in0.0 mm 0.00 in0.0 mm
01:00 PM 52.0°F11.1°C 46.0°F7.8°C 80% 5.8 mph SW9.3 kmh SW 10.4 mph16.7 kmh 30.03 in1016.9 mb - 0.00 in0.0 mm 0.00 in0.0 mm
02:00 PM 50.9°F10.5°C 45.3°F7.4°C 81% 6.9 mph S11.1 kmh S 12.7 mph20.4 kmh 30.03 in1016.9 mb - 0.00 in0.0 mm 0.00 in0.0 mm
03:00 PM 50.7°F10.4°C 46.0°F7.8°C 84% 8.1 mph SSW13.0 kmh SSW 10.4 mph16.7 kmh 30.02 in1016.6 mb - 0.00 in0.0 mm 0.00 in0.0 mm
04:00 PM 49.2°F9.6°C 46.7°F8.2°C 91% 6.9 mph S11.1 kmh S 8.1 mph13.0 kmh 30.02 in1016.6 mb - 0.00 in0.0 mm 0.00 in0.0 mm
05:00 PM 49.1°F9.5°C 46.8°F8.2°C 92% 9.2 mph S14.8 kmh S 12.7 mph20.4 kmh 30.02 in1016.6 mb - 0.00 in0.0 mm 0.00 in0.0 mm
06:00 PM 49.6°F9.8°C 46.8°F8.2°C 90% 8.1 mph S13.0 kmh S 12.7 mph20.4 kmh 30.02 in1016.6 mb - 0.00 in0.0 mm 0.00 in0.0 mm
07:00 PM 50.0°F10.0°C 47.2°F8.4°C 90% 10.4 mph S16.7 kmh S 16.1 mph25.9 kmh 30.02 in1016.6 mb - 0.00 in0.0 mm 0.00 in0.0 mm
08:00 PM 49.9°F9.9°C 48.0°F8.9°C 93% 8.1 mph S13.0 kmh S 13.8 mph22.2 kmh 30.00 in1015.9 mb - 0.00 in0.0 mm 0.00 in0.0 mm
09:00 PM 49.8°F9.9°C 47.9°F8.8°C 93% 10.4 mph S16.7 kmh S 19.6 mph31.5 kmh 29.99 in1015.6 mb - 0.00 in0.0 mm 0.00 in0.0 mm
10:00 PM 50.0°F10.0°C 48.3°F9.1°C 94% 8.1 mph S13.0 kmh S 10.4 mph16.7 kmh 29.99 in1015.6 mb - 0.00 in0.0 mm 0.00 in0.0 mm
11:00 PM 49.4°F9.7°C 48.3°F9.1°C 96% 8.1 mph SSE13.0 kmh SSE 11.5 mph18.5 kmh 29.97 in1014.9 mb - 0.01 in0.3 mm 0.01 in0.3 mm